^^
Datos históricos de la estación: Murcia-Puente Tocinos
Diario Informe para Junio 10, 2019 Unidades:  Métrico    Inglés   Ambas
Diario Semanal Mensual Anual Configurable
  Máximo: Mínimo: Media:
Temperatura: 30.7 °C 20.2 °C 24.8 °C
Punto de rocio: 17.5 °C 4.9 °C 11.4 °C
Humedad: 84% 21% 47%
Velocidad viento: 23.3km/h 4.7km/h 11.5km/h
Racha viento: 40.7km/h - -
Viento- - South
Presión: 1012.5 hPa 1008.9 hPa -
Precipitación: 0.0 mm    
Historical Graphs
 
 
Tabla de datos para Junio 10, 2019
Hora Temperatura Punto de rocio Presión Viento Velocidad viento Racha viento Humedad Intensidad lluvia(por hora) Nubes
00:04 22.6 °C 15.7 °C 1012.0 hPa SSW 11.9 km/h 13.0 km/h 65% 0.0 mm CLR
00:09 22.4 °C 15.7 °C 1012.0 hPa SSW 9.5 km/h 14.8 km/h 66% 0.0 mm CLR
00:14 22.2 °C 15.8 °C 1012.0 hPa SSE 9.5 km/h 16.7 km/h 67% 0.0 mm CLR
00:19 22.1 °C 15.9 °C 1011.9 hPa WSW 10.0 km/h 11.9 km/h 68% 0.0 mm CLR
00:24 22.1 °C 15.9 °C 1011.9 hPa SSW 10.0 km/h 16.7 km/h 68% 0.0 mm CLR
00:29 21.9 °C 15.7 °C 1011.9 hPa SW 9.5 km/h 11.1 km/h 68% 0.0 mm CLR
00:34 21.9 °C 15.7 °C 1011.8 hPa SW 9.5 km/h 11.9 km/h 68% 0.0 mm CLR
00:39 21.9 °C 15.9 °C 1011.8 hPa SSW 7.6 km/h 13.0 km/h 69% 0.0 mm CLR
00:44 21.8 °C 15.8 °C 1011.8 hPa WSW 7.6 km/h 9.3 km/h 69% 0.0 mm CLR
00:49 21.7 °C 16.0 °C 1011.9 hPa SW 8.4 km/h 11.1 km/h 70% 0.0 mm CLR
00:54 21.7 °C 16.0 °C 1011.9 hPa WSW 8.4 km/h 9.3 km/h 70% 0.0 mm CLR
00:59 21.7 °C 16.0 °C 1011.9 hPa WSW 6.4 km/h 11.1 km/h 70% 0.0 mm CLR
01:04 21.6 °C 15.9 °C 1011.8 hPa SW 6.4 km/h 13.0 km/h 70% 0.0 mm CLR
01:09 21.6 °C 15.9 °C 1011.8 hPa SW 8.4 km/h 11.1 km/h 70% 0.0 mm CLR
01:14 21.6 °C 15.9 °C 1011.8 hPa SW 8.4 km/h 13.7 km/h 70% 0.0 mm CLR
01:19 21.6 °C 15.9 °C 1011.6 hPa SSW 6.9 km/h 9.3 km/h 70% 0.0 mm CLR
01:24 21.5 °C 16.0 °C 1011.6 hPa SW 6.9 km/h 11.1 km/h 71% 0.0 mm CLR
01:29 21.5 °C 16.0 °C 1011.6 hPa SSW 8.4 km/h 14.8 km/h 71% 0.0 mm CLR
01:34 21.3 °C 16.1 °C 1011.6 hPa SSW 8.4 km/h 18.5 km/h 72% 0.0 mm CLR
01:39 21.3 °C 16.3 °C 1011.6 hPa South 10.0 km/h 11.1 km/h 73% 0.0 mm CLR
01:44 21.2 °C 16.2 °C 1011.6 hPa SW 10.0 km/h 11.9 km/h 73% 0.0 mm CLR
01:49 21.2 °C 16.2 °C 1011.6 hPa South 7.6 km/h 14.8 km/h 73% 0.0 mm CLR
01:54 21.1 °C 16.3 °C 1011.6 hPa SW 7.6 km/h 18.5 km/h 74% 0.0 mm CLR
01:59 20.9 °C 16.3 °C 1011.6 hPa SSW 10.3 km/h 11.1 km/h 75% 0.0 mm CLR
02:04 20.8 °C 16.2 °C 1011.5 hPa SW 10.3 km/h 17.2 km/h 75% 0.0 mm CLR
02:09 20.7 °C 16.3 °C 1011.5 hPa South 10.3 km/h 16.7 km/h 76% 0.0 mm CLR
02:14 20.7 °C 16.3 °C 1011.5 hPa SW 10.3 km/h 14.8 km/h 76% 0.0 mm CLR
02:19 20.7 °C 16.5 °C 1011.5 hPa SW 10.0 km/h 13.0 km/h 77% 0.0 mm CLR
02:24 20.7 °C 16.5 °C 1011.5 hPa SSW 10.0 km/h 9.3 km/h 77% 0.0 mm CLR
02:29 20.6 °C 16.4 °C 1011.5 hPa SSW 7.6 km/h 16.7 km/h 77% 0.0 mm CLR
02:34 20.6 °C 16.4 °C 1011.4 hPa SSW 7.6 km/h 13.0 km/h 77% 0.0 mm CLR
02:39 20.6 °C 16.4 °C 1011.4 hPa SW 9.5 km/h 13.0 km/h 77% 0.0 mm CLR
02:44 20.7 °C 16.5 °C 1011.4 hPa SW 9.5 km/h 11.1 km/h 77% 0.0 mm CLR
02:49 20.7 °C 16.3 °C 1011.2 hPa SSW 8.7 km/h 11.1 km/h 76% 0.0 mm CLR
02:54 20.8 °C 16.4 °C 1011.2 hPa West 8.7 km/h 13.0 km/h 76% 0.0 mm CLR
02:59 20.8 °C 16.2 °C 1011.2 hPa SW 7.6 km/h 11.1 km/h 75% 0.0 mm CLR
03:04 20.8 °C 16.4 °C 1011.2 hPa SW 7.6 km/h 13.0 km/h 76% 0.0 mm CLR
03:09 20.8 °C 16.4 °C 1011.2 hPa SW 8.7 km/h 9.5 km/h 76% 0.0 mm CLR
03:14 20.8 °C 16.4 °C 1011.2 hPa SW 8.7 km/h 11.1 km/h 76% 0.0 mm CLR
03:19 20.8 °C 16.2 °C 1011.2 hPa SSW 6.9 km/h 11.1 km/h 75% 0.0 mm CLR
03:24 20.8 °C 16.2 °C 1011.2 hPa SSW 6.9 km/h 9.3 km/h 75% 0.0 mm CLR
03:29 20.9 °C 16.1 °C 1011.2 hPa SSW 7.6 km/h 9.3 km/h 74% 0.0 mm CLR
03:34 20.9 °C 16.1 °C 1011.1 hPa SSW 7.6 km/h 13.0 km/h 74% 0.0 mm CLR
03:39 20.9 °C 16.1 °C 1011.1 hPa South 6.9 km/h 9.3 km/h 74% 0.0 mm CLR
03:44 20.9 °C 16.1 °C 1011.1 hPa SSE 6.9 km/h 7.4 km/h 74% 0.0 mm CLR
03:49 20.8 °C 16.0 °C 1011.0 hPa SSW 5.8 km/h 7.4 km/h 74% 0.0 mm CLR
03:54 20.8 °C 16.0 °C 1011.0 hPa SSW 5.8 km/h 11.1 km/h 74% 0.0 mm CLR
03:59 20.8 °C 16.0 °C 1011.0 hPa SSW 6.4 km/h 9.3 km/h 74% 0.0 mm CLR
04:04 20.8 °C 16.0 °C 1010.9 hPa SSW 6.4 km/h 9.3 km/h 74% 0.0 mm CLR
04:09 20.8 °C 15.8 °C 1010.9 hPa SSW 6.9 km/h 9.3 km/h 73% 0.0 mm CLR
04:14 20.9 °C 15.7 °C 1010.9 hPa WSW 6.9 km/h 9.3 km/h 72% 0.0 mm CLR
04:19 20.9 °C 15.4 °C 1010.9 hPa WSW 6.4 km/h 6.9 km/h 71% 0.0 mm CLR
04:24 20.9 °C 15.7 °C 1010.9 hPa WSW 6.4 km/h 7.4 km/h 72% 0.0 mm CLR
04:29 20.9 °C 15.7 °C 1010.9 hPa WSW 5.8 km/h 11.1 km/h 72% 0.0 mm CLR
04:34 20.8 °C 15.8 °C 1010.9 hPa NW 5.8 km/h 9.5 km/h 73% 0.0 mm CLR
04:39 20.7 °C 15.7 °C 1010.9 hPa WSW 6.4 km/h 7.4 km/h 73% 0.0 mm CLR
04:44 20.6 °C 15.6 °C 1010.9 hPa WSW 6.4 km/h 9.5 km/h 73% 0.0 mm CLR
04:49 20.6 °C 15.6 °C 1010.9 hPa WNW 5.8 km/h 8.4 km/h 73% 0.0 mm CLR
04:54 20.5 °C 14.4 °C 1010.9 hPa West 5.8 km/h 3.7 km/h 68% 0.0 mm CLR
04:59 20.9 °C 13.1 °C 1010.9 hPa SW 4.7 km/h 16.7 km/h 61% 0.0 mm CLR
05:04 21.9 °C 11.6 °C 1010.9 hPa WNW 4.7 km/h 14.8 km/h 52% 0.0 mm CLR
05:09 22.4 °C 11.4 °C 1010.9 hPa SW 9.5 km/h 14.8 km/h 50% 0.0 mm CLR
05:14 22.5 °C 11.6 °C 1010.9 hPa South 9.5 km/h 11.1 km/h 50% 0.0 mm CLR
05:19 22.7 °C 12.3 °C 1010.9 hPa South 7.6 km/h 13.0 km/h 52% 0.0 mm CLR
05:24 22.4 °C 12.9 °C 1010.9 hPa South 7.6 km/h 16.7 km/h 55% 0.0 mm CLR
05:29 21.9 °C 13.0 °C 1010.9 hPa SSE 9.5 km/h 9.3 km/h 57% 0.0 mm CLR
05:34 21.8 °C 12.6 °C 1010.9 hPa SSW 9.5 km/h 13.0 km/h 56% 0.0 mm CLR
05:39 21.7 °C 11.7 °C 1010.9 hPa South 5.8 km/h 10.0 km/h 53% 0.0 mm CLR
05:44 21.7 °C 12.3 °C 1010.9 hPa South 5.8 km/h 11.9 km/h 55% 0.0 mm CLR
05:49 21.6 °C 11.9 °C 1010.9 hPa SSW 8.4 km/h 13.0 km/h 54% 0.0 mm CLR
05:54 21.6 °C 11.9 °C 1010.9 hPa South 8.4 km/h 9.5 km/h 54% 0.0 mm CLR
05:59 21.6 °C 11.3 °C 1010.9 hPa South 7.6 km/h 11.1 km/h 52% 0.0 mm CLR
06:04 21.6 °C 11.0 °C 1011.0 hPa South 7.6 km/h 10.0 km/h 51% 0.0 mm CLR
06:09 21.7 °C 10.8 °C 1011.0 hPa South 7.6 km/h 11.1 km/h 50% 0.0 mm CLR
06:14 21.7 °C 9.9 °C 1011.0 hPa SSW 7.6 km/h 13.0 km/h 47% 0.0 mm CLR
06:19 21.8 °C 9.7 °C 1011.1 hPa SSW 8.7 km/h 13.0 km/h 46% 0.0 mm CLR
06:24 21.9 °C 9.4 °C 1011.1 hPa SSW 8.7 km/h 13.0 km/h 45% 0.0 mm CLR
06:29 22.0 °C 9.2 °C 1011.1 hPa SSW 8.4 km/h 11.1 km/h 44% 0.0 mm CLR
06:34 22.0 °C 8.8 °C 1011.2 hPa South 8.4 km/h 11.1 km/h 43% 0.0 mm CLR
06:39 22.1 °C 8.6 °C 1011.2 hPa SW 8.4 km/h 13.0 km/h 42% 0.0 mm CLR
06:44 22.1 °C 8.6 °C 1011.2 hPa SSW 8.4 km/h 9.3 km/h 42% 0.0 mm CLR
06:49 22.1 °C 8.2 °C 1011.3 hPa SSW 7.6 km/h 14.8 km/h 41% 0.0 mm CLR
06:54 22.2 °C 7.9 °C 1011.3 hPa SW 7.6 km/h 10.3 km/h 40% 0.0 mm CLR
06:59 22.2 °C 7.6 °C 1011.3 hPa South 8.7 km/h 9.3 km/h 39% 0.0 mm CLR
07:04 22.2 °C 7.6 °C 1011.4 hPa South 8.7 km/h 9.3 km/h 39% 0.0 mm CLR
07:09 22.3 °C 7.3 °C 1011.4 hPa South 8.4 km/h 9.3 km/h 38% 0.0 mm CLR
07:14 22.3 °C 7.3 °C 1011.4 hPa SW 8.4 km/h 6.4 km/h 38% 0.0 mm CLR
07:19 22.4 °C 7.0 °C 1011.4 hPa SSW 5.8 km/h 13.0 km/h 37% 0.0 mm CLR
07:24 22.5 °C 7.1 °C 1011.4 hPa SSW 5.8 km/h 9.3 km/h 37% 0.0 mm CLR
07:29 22.5 °C 7.1 °C 1011.4 hPa SSW 7.6 km/h 9.5 km/h 37% 0.0 mm CLR
07:34 22.5 °C 7.1 °C 1011.6 hPa SSW 7.6 km/h 7.4 km/h 37% 0.0 mm CLR
07:39 22.5 °C 7.1 °C 1011.6 hPa South 6.4 km/h 9.3 km/h 37% 0.0 mm CLR
07:44 22.5 °C 6.7 °C 1011.6 hPa SW 6.4 km/h 13.0 km/h 36% 0.0 mm CLR
07:49 22.5 °C 6.7 °C 1011.8 hPa SW 6.9 km/h 9.3 km/h 36% 0.0 mm CLR
07:54 22.5 °C 6.7 °C 1011.8 hPa WSW 6.9 km/h 7.6 km/h 36% 0.0 mm CLR
07:59 22.5 °C 6.7 °C 1011.8 hPa SW 6.9 km/h 9.5 km/h 36% 0.0 mm CLR
08:04 22.6 °C 6.8 °C 1011.6 hPa SSW 6.9 km/h 13.0 km/h 36% 0.0 mm CLR
08:09 22.6 °C 6.8 °C 1011.6 hPa WSW 7.6 km/h 8.7 km/h 36% 0.0 mm CLR
08:14 22.6 °C 6.3 °C 1011.6 hPa SW 7.6 km/h 16.7 km/h 35% 0.0 mm CLR
08:19 22.7 °C 6.4 °C 1011.9 hPa SW 8.4 km/h 13.0 km/h 35% 0.0 mm CLR
08:24 22.8 °C 6.6 °C 1011.9 hPa SSW 8.4 km/h 13.0 km/h 35% 0.0 mm CLR
08:29 22.9 °C 6.6 °C 1011.9 hPa SW 8.7 km/h 13.0 km/h 35% 0.0 mm CLR
08:34 23.0 °C 6.7 °C 1011.9 hPa WSW 8.7 km/h 11.1 km/h 35% 0.0 mm CLR
08:39 23.1 °C 6.8 °C 1011.9 hPa SSW 8.4 km/h 11.9 km/h 35% 0.0 mm CLR
08:44 23.3 °C 6.9 °C 1011.9 hPa SW 8.4 km/h 13.0 km/h 35% 0.0 mm CLR
08:49 23.4 °C 7.1 °C 1012.1 hPa WSW 8.4 km/h 14.8 km/h 35% 0.0 mm CLR
08:54 23.6 °C 7.2 °C 1012.1 hPa WSW 8.4 km/h 11.1 km/h 35% 0.0 mm CLR
08:59 23.9 °C 7.5 °C 1012.1 hPa WSW 8.7 km/h 13.0 km/h 35% 0.0 mm CLR
09:04 24.1 °C 7.3 °C 1012.2 hPa West 8.7 km/h 13.0 km/h 34% 0.0 mm CLR
09:09 24.2 °C 7.3 °C 1012.2 hPa SW 8.7 km/h 14.8 km/h 34% 0.0 mm CLR
09:14 24.4 °C 7.1 °C 1012.2 hPa SW 8.7 km/h 18.5 km/h 33% 0.0 mm CLR
09:19 24.6 °C 7.3 °C 1012.3 hPa SW 11.1 km/h 20.4 km/h 33% 0.0 mm CLR
09:24 24.7 °C 6.9 °C 1012.3 hPa SW 11.1 km/h 19.0 km/h 32% 0.0 mm CLR
09:29 24.8 °C 7.0 °C 1012.3 hPa West 11.1 km/h 22.5 km/h 32% 0.0 mm CLR
09:34 24.9 °C 6.6 °C 1012.4 hPa WSW 11.1 km/h 19.0 km/h 31% 0.0 mm CLR
09:39 25.1 °C 6.3 °C 1012.4 hPa West 14.0 km/h 29.6 km/h 30% 0.0 mm CLR
09:44 25.3 °C 6.4 °C 1012.4 hPa WNW 14.0 km/h 20.4 km/h 30% 0.0 mm CLR
09:49 25.2 °C 6.4 °C 1012.5 hPa NW 14.8 km/h 20.4 km/h 30% 0.0 mm CLR
09:54 25.3 °C 6.4 °C 1012.5 hPa West 14.8 km/h 29.1 km/h 30% 0.0 mm CLR
09:59 25.2 °C 6.4 °C 1012.5 hPa WNW 15.6 km/h 20.4 km/h 30% 0.0 mm CLR
10:04 25.3 °C 6.4 °C 1012.4 hPa West 15.6 km/h 25.9 km/h 30% 0.0 mm CLR
10:09 25.3 °C 6.0 °C 1012.4 hPa NW 14.8 km/h 24.1 km/h 29% 0.0 mm CLR
10:14 25.6 °C 6.7 °C 1012.4 hPa NW 14.8 km/h 16.7 km/h 30% 0.0 mm CLR
10:19 25.7 °C 6.3 °C 1012.3 hPa WNW 14.0 km/h 18.5 km/h 29% 0.0 mm CLR
10:24 25.8 °C 6.4 °C 1012.3 hPa WSW 14.0 km/h 16.7 km/h 29% 0.0 mm CLR
10:29 26.0 °C 6.6 °C 1012.3 hPa NW 13.7 km/h 18.5 km/h 29% 0.0 mm CLR
10:34 26.1 °C 6.7 °C 1012.3 hPa WNW 13.7 km/h 22.2 km/h 29% 0.0 mm CLR
10:39 26.2 °C 6.8 °C 1012.3 hPa West 13.7 km/h 18.0 km/h 29% 0.0 mm CLR
10:44 26.1 °C 6.2 °C 1012.3 hPa NW 13.7 km/h 20.4 km/h 28% 0.0 mm CLR
10:49 26.3 °C 6.8 °C 1012.2 hPa SW 10.0 km/h 18.5 km/h 29% 0.0 mm CLR
10:54 26.6 °C 6.6 °C 1012.2 hPa West 10.0 km/h 16.1 km/h 28% 0.0 mm CLR
10:59 26.6 °C 6.6 °C 1012.2 hPa WSW 10.3 km/h 18.3 km/h 28% 0.0 mm CLR
11:04 26.7 °C 6.2 °C 1012.1 hPa West 10.3 km/h 18.5 km/h 27% 0.0 mm CLR
11:09 26.9 °C 6.3 °C 1012.1 hPa West 10.3 km/h 14.8 km/h 27% 0.0 mm CLR
11:14 26.9 °C 6.3 °C 1012.1 hPa West 10.3 km/h 20.4 km/h 27% 0.0 mm CLR
11:19 27.0 °C 6.4 °C 1011.9 hPa NW 11.1 km/h 18.3 km/h 27% 0.0 mm CLR
11:24 27.0 °C 6.4 °C 1011.9 hPa NW 11.1 km/h 14.8 km/h 27% 0.0 mm CLR
11:29 27.1 °C 6.5 °C 1011.9 hPa WNW 10.3 km/h 13.0 km/h 27% 0.0 mm CLR
11:34 27.4 °C 6.2 °C 1011.8 hPa West 10.3 km/h 12.2 km/h 26% 0.0 mm CLR
11:39 27.6 °C 6.4 °C 1011.8 hPa WNW 8.7 km/h 10.3 km/h 26% 0.0 mm CLR
11:44 27.6 °C 6.4 °C 1011.8 hPa West 8.7 km/h 13.0 km/h 26% 0.0 mm CLR
11:49 27.6 °C 6.4 °C 1011.7 hPa WNW 9.5 km/h 10.0 km/h 26% 0.0 mm CLR
11:54 27.8 °C 6.6 °C 1011.7 hPa WSW 9.5 km/h 7.6 km/h 26% 0.0 mm CLR
11:59 28.0 °C 6.1 °C 1011.7 hPa West 6.4 km/h 11.1 km/h 25% 0.0 mm CLR
12:04 28.1 °C 6.2 °C 1011.6 hPa West 6.4 km/h 13.0 km/h 25% 0.0 mm CLR
12:09 28.3 °C 5.8 °C 1011.6 hPa NW 8.7 km/h 11.1 km/h 24% 0.0 mm CLR
12:14 28.3 °C 5.8 °C 1011.6 hPa NW 8.7 km/h 19.8 km/h 24% 0.0 mm CLR
12:19 28.6 °C 6.1 °C 1011.5 hPa WNW 8.7 km/h 16.7 km/h 24% 0.0 mm CLR
12:24 28.7 °C 6.1 °C 1011.5 hPa North 8.7 km/h 20.4 km/h 24% 0.0 mm CLR
12:29 28.7 °C 4.9 °C 1011.5 hPa WNW 11.1 km/h 13.7 km/h 22% 0.0 mm CLR
12:34 28.9 °C 5.7 °C 1011.4 hPa WNW 11.1 km/h 18.3 km/h 23% 0.0 mm CLR
12:39 29.0 °C 5.1 °C 1011.4 hPa WNW 10.0 km/h 25.9 km/h 22% 0.0 mm CLR
12:44 28.9 °C 5.1 °C 1011.4 hPa WNW 10.0 km/h 22.2 km/h 22% 0.0 mm CLR
12:49 28.8 °C 4.9 °C 1011.3 hPa WNW 14.0 km/h 16.7 km/h 22% 0.0 mm CLR
12:54 28.9 °C 5.7 °C 1011.3 hPa WNW 14.0 km/h 13.0 km/h 23% 0.0 mm CLR
12:59 28.9 °C 5.1 °C 1011.3 hPa NW 10.0 km/h 18.5 km/h 22% 0.0 mm CLR
13:04 29.1 °C 5.8 °C 1011.1 hPa WSW 10.0 km/h 20.4 km/h 23% 0.0 mm CLR
13:09 29.4 °C 5.4 °C 1011.1 hPa SW 10.3 km/h 20.4 km/h 22% 0.0 mm CLR
13:14 29.4 °C 5.4 °C 1011.1 hPa West 10.3 km/h 15.6 km/h 22% 0.0 mm CLR
13:19 29.4 °C 5.4 °C 1011.1 hPa SSW 10.3 km/h 20.4 km/h 22% 0.0 mm CLR
13:24 29.6 °C 5.6 °C 1011.1 hPa West 10.3 km/h 20.9 km/h 22% 0.0 mm CLR
13:29 29.4 °C 5.4 °C 1011.1 hPa West 12.2 km/h 20.4 km/h 22% 0.0 mm CLR
13:34 29.4 °C 5.4 °C 1010.9 hPa WSW 12.2 km/h 18.5 km/h 22% 0.0 mm CLR
13:39 29.5 °C 5.6 °C 1010.9 hPa SW 12.2 km/h 13.0 km/h 22% 0.0 mm CLR
13:44 29.4 °C 5.4 °C 1010.9 hPa East 12.2 km/h 3.7 km/h 22% 0.0 mm CLR
13:49 29.8 °C 5.8 °C 1010.8 hPa SW 5.0 km/h 9.3 km/h 22% 0.0 mm CLR
13:54 29.9 °C 5.9 °C 1010.8 hPa West 5.0 km/h 16.4 km/h 22% 0.0 mm CLR
13:59 30.1 °C 5.4 °C 1010.8 hPa SW 10.0 km/h 20.4 km/h 21% 0.0 mm CLR
14:04 29.8 °C 5.8 °C 1010.7 hPa South 10.0 km/h 16.7 km/h 22% 0.0 mm CLR
14:09 29.8 °C 5.1 °C 1010.7 hPa West 9.5 km/h 9.3 km/h 21% 0.0 mm CLR
14:14 29.9 °C 5.9 °C 1010.7 hPa NW 9.5 km/h 13.0 km/h 22% 0.0 mm CLR
14:19 30.1 °C 5.4 °C 1010.5 hPa South 6.9 km/h 11.1 km/h 21% 0.0 mm CLR
14:24 30.2 °C 5.4 °C 1010.5 hPa West 6.9 km/h 5.6 km/h 21% 0.0 mm CLR
14:29 30.3 °C 5.6 °C 1010.5 hPa SW 5.8 km/h 8.7 km/h 21% 0.0 mm CLR
14:34 30.4 °C 5.6 °C 1010.2 hPa West 5.8 km/h 5.8 km/h 21% 0.0 mm CLR
14:39 30.7 °C 5.9 °C 1010.2 hPa SW 5.0 km/h 11.1 km/h 21% 0.0 mm CLR
14:44 30.6 °C 5.8 °C 1010.2 hPa NNE 5.0 km/h 7.4 km/h 21% 0.0 mm CLR
14:49 30.7 °C 5.9 °C 1010.1 hPa NNW 6.4 km/h 11.1 km/h 21% 0.0 mm CLR
14:54 30.7 °C 5.9 °C 1010.1 hPa NNW 6.4 km/h 13.0 km/h 21% 0.0 mm CLR
14:59 30.3 °C 11.8 °C 1010.1 hPa ESE 7.6 km/h 29.6 km/h 32% 0.0 mm CLR
15:04 29.8 °C 11.8 °C 1009.9 hPa SE 7.6 km/h 20.4 km/h 33% 0.0 mm CLR
15:09 29.6 °C 11.6 °C 1009.9 hPa SSE 17.2 km/h 24.1 km/h 33% 0.0 mm CLR
15:14 29.6 °C 11.2 °C 1009.9 hPa SE 17.2 km/h 31.5 km/h 32% 0.0 mm CLR
15:19 29.6 °C 11.6 °C 1009.6 hPa SE 18.3 km/h 29.6 km/h 33% 0.0 mm CLR
15:24 29.4 °C 11.4 °C 1009.6 hPa ESE 18.3 km/h 25.9 km/h 33% 0.0 mm CLR
15:29 29.3 °C 12.3 °C 1009.6 hPa ESE 22.0 km/h 33.3 km/h 35% 0.0 mm CLR
15:34 29.2 °C 12.6 °C 1009.5 hPa ESE 22.0 km/h 28.2 km/h 36% 0.0 mm CLR
15:39 29.2 °C 12.6 °C 1009.5 hPa ESE 20.9 km/h 35.2 km/h 36% 0.0 mm CLR
15:44 29.1 °C 13.3 °C 1009.5 hPa SE 20.9 km/h 29.6 km/h 38% 0.0 mm CLR
15:49 28.9 °C 13.6 °C 1009.4 hPa East 23.3 km/h 38.9 km/h 39% 0.0 mm CLR
15:54 28.7 °C 13.4 °C 1009.4 hPa ESE 23.3 km/h 37.0 km/h 39% 0.0 mm CLR
15:59 28.9 °C 13.9 °C 1009.4 hPa SE 23.3 km/h 29.6 km/h 40% 0.0 mm CLR
16:04 29.0 °C 14.1 °C 1009.4 hPa East 23.3 km/h 33.3 km/h 40% 0.0 mm CLR
16:09 29.0 °C 14.1 °C 1009.4 hPa ESE 22.0 km/h 35.9 km/h 40% 0.0 mm CLR
16:14 28.8 °C 13.8 °C 1009.4 hPa ESE 22.0 km/h 35.2 km/h 40% 0.0 mm CLR
16:19 28.8 °C 13.8 °C 1009.5 hPa East 23.3 km/h 33.3 km/h 40% 0.0 mm CLR
16:24 28.8 °C 13.8 °C 1009.5 hPa SE 23.3 km/h 25.9 km/h 40% 0.0 mm CLR
16:29 28.9 °C 13.9 °C 1009.5 hPa ESE 20.9 km/h 29.6 km/h 40% 0.0 mm CLR
16:34 29.2 °C 13.8 °C 1009.3 hPa ESE 20.9 km/h 24.5 km/h 39% 0.0 mm CLR
16:39 29.4 °C 14.0 °C 1009.3 hPa ESE 17.2 km/h 27.8 km/h 39% 0.0 mm CLR
16:44 29.2 °C 13.0 °C 1009.3 hPa ESE 17.2 km/h 38.9 km/h 37% 0.0 mm CLR
16:49 29.1 °C 12.9 °C 1009.2 hPa SE 23.3 km/h 33.3 km/h 37% 0.0 mm CLR
16:54 29.2 °C 12.6 °C 1009.2 hPa SE 23.3 km/h 33.3 km/h 36% 0.0 mm CLR
16:59 29.4 °C 11.9 °C 1009.2 hPa East 20.9 km/h 25.6 km/h 34% 0.0 mm CLR
17:04 29.2 °C 12.2 °C 1009.1 hPa ESE 20.9 km/h 35.2 km/h 35% 0.0 mm CLR
17:09 28.9 °C 11.4 °C 1009.1 hPa ESE 23.3 km/h 27.4 km/h 34% 0.0 mm CLR
17:14 28.8 °C 11.4 °C 1009.1 hPa ESE 23.3 km/h 40.7 km/h 34% 0.0 mm CLR
17:19 29.1 °C 11.2 °C 1009.1 hPa ESE 22.5 km/h 37.0 km/h 33% 0.0 mm CLR
17:24 29.1 °C 10.7 °C 1009.1 hPa SSE 22.5 km/h 22.2 km/h 32% 0.0 mm CLR
17:29 29.1 °C 10.7 °C 1009.1 hPa ESE 19.0 km/h 33.3 km/h 32% 0.0 mm CLR
17:34 28.9 °C 10.6 °C 1009.1 hPa ESE 19.0 km/h 29.6 km/h 32% 0.0 mm CLR
17:39 28.8 °C 10.4 °C 1009.1 hPa ESE 22.0 km/h 33.3 km/h 32% 0.0 mm CLR
17:44 28.8 °C 10.0 °C 1009.1 hPa South 22.0 km/h 22.2 km/h 31% 0.0 mm CLR
17:49 28.9 °C 10.1 °C 1009.1 hPa ESE 18.0 km/h 20.4 km/h 31% 0.0 mm CLR
17:54 29.0 °C 10.2 °C 1009.1 hPa ESE 18.0 km/h 29.6 km/h 31% 0.0 mm CLR
17:59 29.1 °C 10.2 °C 1009.1 hPa East 15.6 km/h 22.2 km/h 31% 0.0 mm CLR
18:04 29.0 °C 9.7 °C 1009.2 hPa SE 15.6 km/h 25.9 km/h 30% 0.0 mm CLR
18:09 29.0 °C 9.7 °C 1009.2 hPa SSE 15.6 km/h 24.1 km/h 30% 0.0 mm CLR
18:14 28.9 °C 9.6 °C 1009.2 hPa SSE 15.6 km/h 14.0 km/h 30% 0.0 mm CLR
18:19 29.0 °C 9.7 °C 1009.1 hPa SSE 16.1 km/h 22.2 km/h 30% 0.0 mm CLR
18:24 28.9 °C 9.6 °C 1009.1 hPa SE 16.1 km/h 25.9 km/h 30% 0.0 mm CLR
18:29 28.9 °C 9.6 °C 1009.1 hPa SE 15.6 km/h 20.4 km/h 30% 0.0 mm CLR
18:34 28.8 °C 9.5 °C 1008.9 hPa SE 15.6 km/h 16.7 km/h 30% 0.0 mm CLR
18:39 28.8 °C 9.5 °C 1008.9 hPa SSE 13.0 km/h 14.8 km/h 30% 0.0 mm CLR
18:44 28.8 °C 9.5 °C 1008.9 hPa SE 13.0 km/h 20.4 km/h 30% 0.0 mm CLR
18:49 28.6 °C 9.3 °C 1009.0 hPa SSE 11.1 km/h 13.0 km/h 30% 0.0 mm CLR
18:54 28.7 °C 9.4 °C 1009.0 hPa East 11.1 km/h 18.5 km/h 30% 0.0 mm CLR
18:59 28.4 °C 9.6 °C 1009.0 hPa ESE 10.0 km/h 11.1 km/h 31% 0.0 mm CLR
19:04 28.4 °C 9.2 °C 1009.0 hPa SE 10.0 km/h 16.7 km/h 30% 0.0 mm CLR
19:09 28.3 °C 9.1 °C 1009.0 hPa SE 10.0 km/h 11.1 km/h 30% 0.0 mm CLR
19:14 28.3 °C 8.6 °C 1009.0 hPa ESE 10.0 km/h 12.2 km/h 29% 0.0 mm CLR
19:19 28.2 °C 9.0 °C 1009.0 hPa SE 10.0 km/h 20.4 km/h 30% 0.0 mm CLR
19:24 28.1 °C 8.4 °C 1009.0 hPa ESE 10.0 km/h 18.5 km/h 29% 0.0 mm CLR
19:29 27.9 °C 8.2 °C 1009.0 hPa ESE 11.1 km/h 22.2 km/h 29% 0.0 mm CLR
19:34 27.8 °C 8.1 °C 1009.2 hPa East 11.1 km/h 14.8 km/h 29% 0.0 mm CLR
19:39 27.7 °C 8.1 °C 1009.2 hPa SSE 13.0 km/h 14.8 km/h 29% 0.0 mm CLR
19:44 27.7 °C 8.1 °C 1009.2 hPa East 13.0 km/h 14.8 km/h 29% 0.0 mm CLR
19:49 27.7 °C 8.1 °C 1009.2 hPa ESE 9.5 km/h 11.9 km/h 29% 0.0 mm CLR
19:54 27.7 °C 13.3 °C 1009.2 hPa NE 9.5 km/h 13.0 km/h 41% 0.0 mm CLR
19:59 27.1 °C 9.9 °C 1009.2 hPa North 6.9 km/h 13.0 km/h 34% 0.0 mm CLR
20:04 27.1 °C 8.0 °C 1009.2 hPa ENE 6.9 km/h 13.0 km/h 30% 0.0 mm CLR
20:09 27.1 °C 14.8 °C 1009.2 hPa NE 8.4 km/h 20.4 km/h 47% 0.0 mm CLR
20:14 26.3 °C 14.4 °C 1009.2 hPa NE 8.4 km/h 27.8 km/h 48% 0.0 mm CLR
20:19 25.7 °C 15.7 °C 1009.3 hPa ENE 14.8 km/h 22.2 km/h 54% 0.0 mm CLR
20:24 25.3 °C 15.6 °C 1009.3 hPa East 14.8 km/h 24.1 km/h 55% 0.0 mm CLR
20:29 24.9 °C 15.2 °C 1009.3 hPa ENE 14.0 km/h 24.1 km/h 55% 0.0 mm CLR
20:34 24.7 °C 15.3 °C 1009.4 hPa North 14.0 km/h 16.7 km/h 56% 0.0 mm CLR
20:39 24.6 °C 15.8 °C 1009.4 hPa NNE 12.2 km/h 20.4 km/h 58% 0.0 mm CLR
20:45 24.3 °C 15.8 °C 1009.4 hPa NE 12.9 km/h 22.5 km/h 59% 0.0 mm CLR
20:50 23.9 °C 15.9 °C 1009.4 hPa NNE 14.8 km/h 24.1 km/h 61% 0.0 mm CLR
20:55 23.8 °C 15.6 °C 1009.4 hPa NE 14.5 km/h 22.5 km/h 60% 0.0 mm CLR
21:00 23.9 °C 16.2 °C 1009.4 hPa NE 12.9 km/h 22.5 km/h 62% 0.0 mm CLR
21:05 23.7 °C 16.5 °C 1009.6 hPa NE 12.9 km/h 25.7 km/h 64% 0.0 mm CLR
21:10 23.4 °C 16.7 °C 1009.6 hPa NE 15.6 km/h 22.2 km/h 66% 0.0 mm CLR
21:15 23.2 °C 16.7 °C 1009.6 hPa NNE 14.5 km/h 22.5 km/h 67% 0.0 mm CLR
21:20 23.0 °C 16.8 °C 1009.7 hPa NE 14.0 km/h 19.8 km/h 68% 0.0 mm CLR
21:25 22.8 °C 16.8 °C 1009.7 hPa NNE 14.5 km/h 24.1 km/h 69% 0.0 mm CLR
21:30 22.7 °C 16.9 °C 1009.7 hPa NNE 14.5 km/h 27.4 km/h 70% 0.0 mm CLR
21:35 22.6 °C 16.8 °C 1009.9 hPa NNE 14.5 km/h 22.5 km/h 70% 0.0 mm CLR
21:40 22.4 °C 17.1 °C 1009.9 hPa NNE 16.1 km/h 22.2 km/h 72% 0.0 mm CLR
21:45 22.2 °C 16.9 °C 1009.9 hPa NNE 16.1 km/h 25.7 km/h 72% 0.0 mm CLR
21:50 22.2 °C 17.1 °C 1010.0 hPa NE 15.6 km/h 24.1 km/h 73% 0.0 mm CLR
21:55 22.1 °C 17.1 °C 1010.0 hPa NE 14.5 km/h 27.4 km/h 73% 0.0 mm CLR
22:00 22.0 °C 17.2 °C 1010.0 hPa NE 14.5 km/h 27.4 km/h 74% 0.0 mm CLR
22:05 21.9 °C 17.1 °C 1010.2 hPa NE 14.5 km/h 30.6 km/h 74% 0.0 mm CLR
22:10 21.8 °C 17.2 °C 1010.2 hPa East 15.6 km/h 29.6 km/h 75% 0.0 mm CLR
22:15 21.7 °C 17.1 °C 1010.2 hPa NE 15.6 km/h 20.9 km/h 75% 0.0 mm CLR
22:20 21.6 °C 17.0 °C 1010.3 hPa NNE 14.8 km/h 24.1 km/h 75% 0.0 mm CLR
22:25 21.6 °C 17.2 °C 1010.3 hPa NE 14.5 km/h 25.7 km/h 76% 0.0 mm CLR
22:30 21.4 °C 17.2 °C 1010.3 hPa NE 17.2 km/h 27.8 km/h 77% 0.0 mm CLR
22:35 21.4 °C 17.2 °C 1010.3 hPa NE 16.1 km/h 25.7 km/h 77% 0.0 mm CLR
22:40 21.2 °C 17.0 °C 1010.3 hPa NE 16.1 km/h 22.2 km/h 77% 0.0 mm CLR
22:45 21.1 °C 17.1 °C 1010.3 hPa NNE 16.1 km/h 27.4 km/h 78% 0.0 mm CLR
22:50 21.0 °C 17.2 °C 1010.6 hPa NE 16.1 km/h 25.1 km/h 79% 0.0 mm CLR
22:55 20.9 °C 17.1 °C 1010.6 hPa NNE 16.1 km/h 25.7 km/h 79% 0.0 mm CLR
23:00 20.8 °C 17.2 °C 1010.6 hPa NE 16.1 km/h 24.1 km/h 80% 0.0 mm CLR
23:05 20.7 °C 17.1 °C 1010.5 hPa NE 16.1 km/h 24.1 km/h 80% 0.0 mm CLR
23:10 20.7 °C 17.3 °C 1010.5 hPa NNE 16.4 km/h 27.8 km/h 81% 0.0 mm CLR
23:15 20.6 °C 17.2 °C 1010.5 hPa NE 16.1 km/h 25.7 km/h 81% 0.0 mm CLR
23:20 20.6 °C 17.4 °C 1010.6 hPa NE 14.5 km/h 24.1 km/h 82% 0.0 mm CLR
23:25 20.5 °C 17.3 °C 1010.6 hPa NE 14.5 km/h 22.5 km/h 82% 0.0 mm CLR
23:30 20.4 °C 17.2 °C 1010.6 hPa NNE 13.7 km/h 18.5 km/h 82% 0.0 mm CLR
23:35 20.3 °C 17.3 °C 1010.6 hPa NE 13.7 km/h 18.5 km/h 83% 0.0 mm CLR
23:40 20.3 °C 17.3 °C 1010.6 hPa NE 14.5 km/h 24.1 km/h 83% 0.0 mm CLR
23:45 20.3 °C 17.5 °C 1010.6 hPa NE 14.5 km/h 22.5 km/h 84% 0.0 mm CLR
23:50 20.3 °C 17.5 °C 1010.7 hPa ENE 14.0 km/h 18.5 km/h 84% 0.0 mm CLR
23:55 20.2 °C 17.4 °C 1010.7 hPa NE 14.5 km/h 20.9 km/h 84% 0.0 mm CLR
Murcia-Puente Tocinos, España
Compliments of Weather Underground - 2.75 mb

La estación de MeteoMurcia.com, publica sus datos en los siguientes proyectos:

Weather Underground PWS IMURCIAP2 Meteoclimatic www.awekas.at

W3Counter
Web Analytics